Aplington, Iowa
Current Conditions -  °F | °C
As of 6:15 AM on Thursday 23 Oct 2014 (Local Time) from KIFA Reporting Station
Moderate Rain Moderate Rain  
Wind Chill:   Ceiling: 1400
Heat Index:   Visibility: 10mi
Dew Point:   Wind: 8mph
Humidity: 92%   Direction: 150°SSE
Pressure: 30.05"   Gusts: NA
Location:  42.58°N, 92.88°W
Report Text: KIFA 231115Z AUTO 15007KT 10SM RA OVC014 09/08 A3005 RMK AO2 P0002 T00920080
Loading
Personal Weather Stations






























Interactive Weather Map
Tropical Storm Tracking
New forecast layout! Learn more

10-Day Weather Forecast

Advertisements
Track Severe Weather on mobile